Time;durP1;ratioP1;P1;durP2;ratioP2;P2;SDS_P1;SDS_P2;PMS_P1;PMS_P2;Temp;Humidity;BMP_temperature;BMP_pressure;BME280_temperature;BME280_humidity;BME280_pressure;Samples;Min_cycle;Max_cycle;Signal;HPM_P1;HPM_P2
2021/12/31 00:00:48;;;;;;;19.73;4.88;;;;;;;;;;4887182;29;20522;-77
2021/12/31 00:03:16;;;;;;;21.25;4.57;;;;;;;;;;4879662;29;20434;-77
2021/12/31 00:05:42;;;;;;;22.40;5.40;;;;;;;;;;4889232;29;20462;-77
2021/12/31 00:08:09;;;;;;;20.35;4.93;;;;;;;;;;4911875;29;20426;-77
2021/12/31 00:10:35;;;;;;;21.38;5.07;;;;;;;;;;4885210;29;20439;-77
2021/12/31 00:13:01;;;;;;;18.90;4.70;;;;;;;;;;4869373;29;20441;-78
2021/12/31 00:15:27;;;;;;;21.33;4.80;;;;;;;;;;4900010;29;20434;-77
2021/12/31 00:17:53;;;;;;;19.23;4.65;;;;;;;;;;4900122;29;20464;-77
2021/12/31 00:20:23;;;;;;;18.40;4.57;;;;;;;;;;4898156;29;20445;-77
2021/12/31 00:25:24;;;;;;;19.02;4.38;;;;;;;;;;4884471;29;20460;-77
2021/12/31 00:27:51;;;;;;;18.15;4.70;;;;;;;;;;4889964;29;20433;-77
2021/12/31 00:30:17;;;;;;;19.73;4.50;;;;;;;;;;4884056;29;20557;-77
2021/12/31 00:32:43;;;;;;;18.48;4.97;;;;;;;;;;4891878;29;20429;-77
2021/12/31 00:35:10;;;;;;;15.80;4.70;;;;;;;;;;4889610;29;20435;-78
2021/12/31 00:37:37;;;;;;;15.05;4.30;;;11.80;99.90;;;;;;4887889;29;20525;-77
2021/12/31 00:40:06;;;;;;;18.15;4.60;;;;;;;;;;4876979;29;20445;-77
2021/12/31 00:42:32;;;;;;;21.10;5.20;;;;;;;;;;4892586;29;20431;-77
2021/12/31 00:44:58;;;;;;;20.98;5.20;;;;;;;;;;4884519;29;20483;-77
2021/12/31 00:47:24;;;;;;;21.25;4.53;;;;;;;;;;4889981;29;20518;-77
2021/12/31 00:49:50;;;;;;;19.33;4.70;;;;;;;;;;4884520;29;20771;-77
2021/12/31 00:52:16;;;;;;;19.75;4.22;;;;;;;;;;4885459;29;20431;-77
2021/12/31 00:54:43;;;;;;;17.13;4.40;;;;;;;;;;4880744;29;20449;-77
2021/12/31 00:57:10;;;;;;;20.37;4.77;;;;;;;;;;4890727;29;20815;-78
2021/12/31 00:59:36;;;;;;;18.95;4.90;;;;;;;;;;4864181;29;20440;-77
2021/12/31 01:02:04;;;;;;;21.93;5.50;;;;;;;;;;4882292;29;20836;-77
2021/12/31 01:04:33;;;;;;;19.23;5.47;;;;;;;;;;4880865;29;20785;-78
2021/12/31 01:07:01;;;;;;;20.38;4.93;;;;;;;;;;4893107;29;20744;-77
2021/12/31 01:09:31;;;;;;;17.05;4.75;;;12.20;99.90;;;;;;4874587;29;20429;-78
2021/12/31 01:11:57;;;;;;;21.52;5.10;;;;;;;;;;4867715;29;20441;-77
2021/12/31 01:14:32;;;;;;;20.30;5.28;;;;;;;;;;4888836;29;20434;-77
2021/12/31 01:17:01;;;;;;;20.10;4.80;;;;;;;;;;4893633;29;20528;-78
2021/12/31 01:21:55;;;;;;;21.70;5.15;;;;;;;;;;4888369;29;20504;-77
2021/12/31 01:24:25;;;;;;;19.13;5.13;;;;;;;;;;4875924;29;20429;-78
2021/12/31 01:26:51;;;;;;;18.83;4.87;;;;;;;;;;4890719;29;20521;-77
2021/12/31 01:29:17;;;;;;;20.45;5.15;;;;;;;;;;4891392;29;20462;-77
2021/12/31 01:31:43;;;;;;;19.67;5.18;;;;;;;;;;4900619;29;20428;-77
2021/12/31 01:34:09;;;;;;;19.17;5.53;;;;;;;;;;4904242;29;20566;-79
2021/12/31 01:36:35;;;;;;;21.07;5.93;;;;;;;;;;4883111;29;20458;-79
2021/12/31 01:39:01;;;;;;;19.45;4.93;;;;;;;;;;4893311;29;20481;-79
2021/12/31 01:41:27;;;;;;;19.67;5.22;;;;;;;;;;4875927;29;20511;-79
2021/12/31 01:43:54;;;;;;;17.75;4.70;;;;;;;;;;4869147;29;20461;-79
2021/12/31 01:46:20;;;;;;;19.77;5.22;;;;;;;;;;4913775;29;20427;-79
2021/12/31 01:51:24;;;;;;;19.33;4.90;;;;;;;;;;4882032;29;20433;-79
2021/12/31 01:53:50;;;;;;;22.27;5.13;;;;;;;;;;4913844;29;20484;-79
2021/12/31 01:56:18;;;;;;;20.17;5.20;;;;;;;;;;4867468;29;20421;-79
2021/12/31 01:58:47;;;;;;;17.23;5.10;;;;;;;;;;4907552;29;20998;-80
2021/12/31 02:01:13;;;;;;;16.35;4.57;;;;;;;;;;4915203;29;20929;-80
2021/12/31 02:03:39;;;;;;;20.50;5.45;;;;;;;;;;4898955;29;20464;-80
2021/12/31 02:06:05;;;;;;;22.83;5.80;;;;;;;;;;4883098;29;20911;-80
2021/12/31 02:08:32;;;;;;;18.15;5.25;;;;;;;;;;4896715;29;20434;-80
2021/12/31 02:10:58;;;;;;;20.88;5.10;;;;;;;;;;4893743;29;20507;-80
2021/12/31 02:13:25;;;;;;;16.35;4.70;;;;;;;;;;4884402;29;20436;-79
2021/12/31 02:15:52;;;;;;;15.10;4.18;;;;;;;;;;4902176;29;20431;-79
2021/12/31 02:18:18;;;;;;;17.58;5.03;;;;;;;;;;4883874;29;20437;-79
2021/12/31 02:20:46;;;;;;;17.92;4.53;;;;;;;;;;4884511;29;20941;-79
2021/12/31 02:23:17;;;;;;;18.63;4.63;;;12.30;99.90;;;;;;4889172;29;20516;-77
2021/12/31 02:25:43;;;;;;;17.60;4.37;;;;;;;;;;4870871;29;20971;-77
2021/12/31 02:28:09;;;;;;;12.98;4.55;;;;;;;;;;4880040;29;20629;-77
2021/12/31 02:30:36;;;;;;;16.15;4.10;;;;;;;;;;4888639;29;20452;-77
2021/12/31 02:33:03;;;;;;;15.88;4.25;;;;;;;;;;4886611;29;20787;-77
2021/12/31 02:35:30;;;;;;;13.45;4.22;;;12.50;99.90;;;;;;4889099;29;20442;-77
2021/12/31 02:37:57;;;;;;;19.15;4.72;;;;;;;;;;4887810;29;20470;-77
2021/12/31 02:40:24;;;;;;;14.02;4.10;;;;;;;;;;4887146;29;20443;-77
2021/12/31 02:42:52;;;;;;;12.03;4.10;;;;;;;;;;4885712;29;21579;-78
2021/12/31 02:45:21;;;;;;;16.15;3.92;;;;;;;;;;4896915;29;20496;-78
2021/12/31 02:47:47;;;;;;;13.00;3.88;;;;;;;;;;4887703;29;20422;-78
2021/12/31 02:50:14;;;;;;;12.95;3.75;;;;;;;;;;4885931;29;20431;-78
2021/12/31 02:52:42;;;;;;;14.15;4.13;;;;;;;;;;4888452;29;20465;-79
2021/12/31 02:55:09;;;;;;;15.10;4.10;;;12.90;99.90;;;;;;4875045;29;20426;-80
2021/12/31 02:57:36;;;;;;;11.55;3.85;;;;;;;;;;4880606;29;20447;-80
2021/12/31 03:00:02;;;;;;;12.65;3.92;;;;;;;;;;4901080;29;20444;-80
2021/12/31 03:02:28;;;;;;;12.27;3.78;;;;;;;;;;4873996;29;20946;-80
2021/12/31 03:04:56;;;;;;;11.65;3.90;;;;;;;;;;4889752;29;20479;-78
2021/12/31 03:07:23;;;;;;;13.70;4.00;;;;;;;;;;4890450;29;20500;-78
2021/12/31 03:09:50;;;;;;;14.60;4.00;;;12.90;99.90;;;;;;4889012;29;20433;-78
2021/12/31 03:12:16;;;;;;;16.20;4.28;;;;;;;;;;4890643;29;20437;-78
2021/12/31 03:14:44;;;;;;;12.47;4.33;;;;;;;;;;4881825;29;21038;-78
2021/12/31 03:17:10;;;;;;;16.13;4.30;;;;;;;;;;4888926;29;20438;-80
2021/12/31 03:19:37;;;;;;;10.03;3.70;;;;;;;;;;4922865;29;20465;-80
2021/12/31 03:22:03;;;;;;;10.00;3.60;;;12.90;99.90;;;;;;4881435;29;20437;-80
2021/12/31 03:24:29;;;;;;;11.70;3.65;;;;;;;;;;4893781;29;20453;-80
2021/12/31 03:26:55;;;;;;;12.07;3.65;;;;;;;;;;4872954;29;20982;-81
2021/12/31 03:29:22;;;;;;;10.77;3.72;;;12.40;99.90;;;;;;4891877;29;20476;-80
2021/12/31 03:31:48;;;;;;;12.45;4.10;;;;;;;;;;4898601;29;20433;-80
2021/12/31 03:34:14;;;;;;;9.27;3.35;;;;;;;;;;4884104;29;20434;-80
2021/12/31 03:36:42;;;;;;;12.07;3.53;;;;;;;;;;4890657;29;20540;-80
2021/12/31 03:39:08;;;;;;;11.90;3.60;;;;;;;;;;4884686;29;20417;-80
2021/12/31 03:41:34;;;;;;;10.48;3.55;;;;;;;;;;4891649;29;20479;-80
2021/12/31 03:44:00;;;;;;;10.37;3.27;;;;;;;;;;4879479;29;20425;-80
2021/12/31 03:46:26;;;;;;;8.45;3.13;;;;;;;;;;4899328;29;20438;-80
2021/12/31 03:48:52;;;;;;;10.40;3.38;;;;;;;;;;4895932;29;20470;-80
2021/12/31 03:51:19;;;;;;;12.05;3.40;;;;;;;;;;4880980;29;20414;-80
2021/12/31 03:53:45;;;;;;;10.43;3.30;;;;;;;;;;4909671;29;20441;-81
2021/12/31 03:56:11;;;;;;;12.63;3.78;;;;;;;;;;4876110;29;20417;-81
2021/12/31 03:58:37;;;;;;;11.13;3.60;;;;;;;;;;4896503;29;20456;-80
2021/12/31 04:01:03;;;;;;;12.70;3.65;;;;;;;;;;4889339;29;20448;-80
2021/12/31 04:03:30;;;;;;;13.10;3.85;;;;;;;;;;4891848;29;20445;-80
2021/12/31 04:05:56;;;;;;;11.95;3.53;;;;;;;;;;4883790;29;20452;-80
2021/12/31 04:08:22;;;;;;;14.25;3.83;;;;;;;;;;4898093;29;20425;-80
2021/12/31 04:10:48;;;;;;;11.60;3.80;;;;;;;;;;4872692;29;20466;-80
2021/12/31 04:13:15;;;;;;;11.73;3.72;;;;;;;;;;4872994;29;20943;-80
2021/12/31 04:15:41;;;;;;;10.90;3.92;;;;;;;;;;4889031;29;20423;-80
2021/12/31 04:18:07;;;;;;;12.25;3.90;;;;;;;;;;4879879;29;20432;-80
2021/12/31 04:20:42;;;;;;;10.95;3.45;;;;;;;;;;4891923;29;20520;-80
2021/12/31 04:23:13;;;;;;;9.67;3.33;;;12.70;99.90;;;;;;4886867;29;20552;-80
2021/12/31 04:25:39;;;;;;;10.98;3.90;;;;;;;;;;4895102;29;20488;-80
2021/12/31 04:28:06;;;;;;;11.38;3.42;;;12.40;99.90;;;;;;4899491;29;20436;-80
2021/12/31 04:30:32;;;;;;;11.43;3.80;;;;;;;;;;4880406;29;20488;-80
2021/12/31 04:33:00;;;;;;;9.45;3.20;;;;;;;;;;4874174;29;20483;-80
2021/12/31 04:35:26;;;;;;;9.30;3.13;;;;;;;;;;4872207;29;20434;-80
2021/12/31 04:37:52;;;;;;;14.35;3.45;;;;;;;;;;4892712;29;20967;-81
2021/12/31 04:40:18;;;;;;;8.23;3.10;;;;;;;;;;4896339;29;20790;-80
2021/12/31 04:42:46;;;;;;;9.35;3.30;;;;;;;;;;4877036;29;20429;-80
2021/12/31 04:45:12;;;;;;;10.55;3.22;;;;;;;;;;4887450;29;20423;-80
2021/12/31 04:47:39;;;;;;;10.63;3.22;;;;;;;;;;4895340;29;20414;-80
2021/12/31 04:50:05;;;;;;;9.60;3.17;;;;;;;;;;4892365;29;20424;-81
2021/12/31 04:52:32;;;;;;;11.10;3.63;;;;;;;;;;4893782;29;20434;-81
2021/12/31 04:54:58;;;;;;;10.50;3.33;;;;;;;;;;4896854;29;20484;-78
2021/12/31 04:57:26;;;;;;;9.27;3.17;;;;;;;;;;4885735;29;20482;-78
2021/12/31 04:59:52;;;;;;;8.82;3.22;;;;;;;;;;4868444;29;20436;-78
2021/12/31 05:02:18;;;;;;;9.07;3.50;;;;;;;;;;4888242;29;20426;-77
2021/12/31 05:04:44;;;;;;;10.10;3.30;;;;;;;;;;4887192;29;20429;-78
2021/12/31 05:07:10;;;;;;;9.38;4.20;;;;;;;;;;4894897;29;20506;-78
2021/12/31 05:09:37;;;;;;;9.63;4.28;;;;;;;;;;4882172;29;20466;-77
2021/12/31 05:12:04;;;;;;;9.57;3.80;;;;;;;;;;4890375;29;20434;-77
2021/12/31 05:14:31;;;;;;;10.60;4.05;;;;;;;;;;4908172;29;20437;-78
2021/12/31 05:16:58;;;;;;;10.52;4.25;;;;;;;;;;4906167;29;20787;-77
2021/12/31 05:19:24;;;;;;;8.97;4.70;;;;;;;;;;4890070;29;20439;-77
2021/12/31 05:21:50;;;;;;;11.68;4.65;;;;;;;;;;4887484;29;20457;-78
2021/12/31 05:24:16;;;;;;;12.48;4.60;;;;;;;;;;4885457;29;20426;-78
2021/12/31 05:26:43;;;;;;;9.32;4.32;;;;;;;;;;4889925;29;20436;-78
2021/12/31 05:29:09;;;;;;;11.15;4.55;;;;;;;;;;4904639;29;20429;-78
2021/12/31 05:31:35;;;;;;;8.77;4.28;;;;;;;;;;4888528;29;20762;-77
2021/12/31 05:34:01;;;;;;;7.68;4.10;;;;;;;;;;4895190;29;20807;-78
2021/12/31 05:36:28;;;;;;;8.40;4.20;;;;;;;;;;4890439;29;20443;-77
2021/12/31 05:38:54;;;;;;;9.05;4.00;;;;;;;;;;4880441;29;20520;-77
2021/12/31 05:41:20;;;;;;;11.23;4.32;;;;;;;;;;4886923;29;20428;-77
2021/12/31 05:43:46;;;;;;;11.20;4.03;;;;;;;;;;4885976;29;20445;-77
2021/12/31 05:46:12;;;;;;;11.60;4.30;;;;;;;;;;4881753;29;20431;-77
2021/12/31 05:48:38;;;;;;;9.57;4.00;;;;;;;;;;4883726;29;20436;-77
2021/12/31 05:51:04;;;;;;;7.78;4.00;;;;;;;;;;4889071;29;20486;-77
2021/12/31 05:53:31;;;;;;;7.37;4.13;;;;;;;;;;4888085;29;20561;-76
2021/12/31 05:55:57;;;;;;;10.88;4.53;;;;;;;;;;4888095;29;20434;-77
2021/12/31 05:58:23;;;;;;;9.32;3.95;;;;;;;;;;4890231;29;20433;-77
2021/12/31 06:00:49;;;;;;;7.90;3.90;;;;;;;;;;4886553;29;20511;-77
2021/12/31 06:03:15;;;;;;;8.52;4.07;;;;;;;;;;4892537;29;20963;-77
2021/12/31 06:05:41;;;;;;;9.45;4.00;;;;;;;;;;4889189;29;20431;-77
2021/12/31 06:08:07;;;;;;;8.23;3.75;;;;;;;;;;4880610;29;20433;-77
2021/12/31 06:10:33;;;;;;;8.60;3.53;;;;;;;;;;4883965;29;20443;-77
2021/12/31 06:13:00;;;;;;;7.68;4.00;;;;;;;;;;4883027;29;20435;-77
2021/12/31 06:15:28;;;;;;;8.68;3.67;;;13.10;99.90;;;;;;4897951;29;20921;-77
2021/12/31 06:17:54;;;;;;;9.40;3.70;;;;;;;;;;4906708;29;20445;-77
2021/12/31 06:20:20;;;;;;;9.13;3.90;;;;;;;;;;4913149;29;20481;-76
2021/12/31 06:22:46;;;;;;;6.05;3.30;;;;;;;;;;4890584;29;20484;-77
2021/12/31 06:25:13;;;;;;;7.07;4.05;;;;;;;;;;4886077;29;20451;-77
2021/12/31 06:27:39;;;;;;;7.33;3.83;;;;;;;;;;4890775;29;20427;-76
2021/12/31 06:30:05;;;;;;;7.65;3.90;;;;;;;;;;4905525;29;20931;-77
2021/12/31 06:32:31;;;;;;;6.68;3.72;;;;;;;;;;4881082;29;20441;-76
2021/12/31 06:34:58;;;;;;;8.82;4.30;;;;;;;;;;4869852;29;20449;-77
2021/12/31 06:37:24;;;;;;;7.82;4.10;;;;;;;;;;4882188;29;20434;-80
2021/12/31 06:39:50;;;;;;;7.13;3.40;;;;;;;;;;4906423;29;20517;-80
2021/12/31 06:42:16;;;;;;;8.48;3.70;;;;;;;;;;4869126;29;20838;-79
2021/12/31 06:44:43;;;;;;;5.80;3.50;;;;;;;;;;4895034;29;20422;-80
2021/12/31 06:47:09;;;;;;;9.50;3.53;;;;;;;;;;4885316;29;20768;-80
2021/12/31 06:49:35;;;;;;;9.27;3.95;;;;;;;;;;4882783;29;20952;-81
2021/12/31 06:52:01;;;;;;;6.85;3.70;;;;;;;;;;4890285;29;20438;-80
2021/12/31 06:54:27;;;;;;;7.75;3.40;;;;;;;;;;4903811;29;20427;-80
2021/12/31 06:56:54;;;;;;;7.73;3.47;;;;;;;;;;4886711;29;20430;-81
2021/12/31 06:59:20;;;;;;;8.00;3.53;;;;;;;;;;4882475;29;20508;-80
2021/12/31 07:01:46;;;;;;;7.13;3.78;;;;;;;;;;4876991;29;20433;-80
2021/12/31 07:04:12;;;;;;;5.18;2.92;;;;;;;;;;4890675;29;20437;-80
2021/12/31 07:06:38;;;;;;;6.88;3.03;;;;;;;;;;4889534;29;20782;-80
2021/12/31 07:09:04;;;;;;;7.55;3.25;;;;;;;;;;4901378;29;20891;-80
2021/12/31 07:11:30;;;;;;;7.13;3.13;;;;;;;;;;4896830;29;20433;-80
2021/12/31 07:13:56;;;;;;;6.35;3.22;;;;;;;;;;4886329;29;20444;-81
2021/12/31 07:16:22;;;;;;;7.53;3.08;;;;;;;;;;4888036;29;20436;-80
2021/12/31 07:18:48;;;;;;;7.93;3.45;;;;;;;;;;4883171;29;20534;-77
2021/12/31 07:21:14;;;;;;;7.55;2.90;;;;;;;;;;4881579;29;20443;-78
2021/12/31 07:23:40;;;;;;;6.43;2.73;;;;;;;;;;4883787;29;20502;-79
2021/12/31 07:26:08;;;;;;;5.82;2.80;;;;;;;;;;4875538;29;20511;-77
2021/12/31 07:28:34;;;;;;;8.07;3.63;;;;;;;;;;4887822;29;20451;-78
2021/12/31 07:31:00;;;;;;;6.03;2.80;;;;;;;;;;4892656;29;20846;-78
2021/12/31 07:33:26;;;;;;;6.30;3.00;;;;;;;;;;4883453;29;20443;-78
2021/12/31 07:35:53;;;;;;;9.23;2.95;;;12.40;99.90;;;;;;4891774;29;20492;-78
2021/12/31 07:38:22;;;;;;;6.03;2.88;;;;;;;;;;4891579;29;20484;-78
2021/12/31 07:40:51;;;;;;;6.47;2.92;;;;;;;;;;4878869;29;20451;-78
2021/12/31 07:43:17;;;;;;;7.00;2.80;;;;;;;;;;4889764;29;20439;-77
2021/12/31 07:45:43;;;;;;;6.82;3.13;;;;;;;;;;4893155;29;20512;-78
2021/12/31 07:48:09;;;;;;;7.05;2.70;;;;;;;;;;4877483;29;20439;-78
2021/12/31 07:50:36;;;;;;;6.33;3.00;;;;;;;;;;4887149;29;20441;-78
2021/12/31 07:53:03;;;;;;;6.18;3.03;;;;;;;;;;4886924;29;20429;-77
2021/12/31 07:55:29;;;;;;;5.32;3.08;;;;;;;;;;4900509;29;20527;-77
2021/12/31 07:57:55;;;;;;;5.97;3.00;;;;;;;;;;4882338;29;20825;-78
2021/12/31 08:00:21;;;;;;;6.72;2.90;;;;;;;;;;4886012;29;20437;-78
2021/12/31 08:02:48;;;;;;;6.50;3.00;;;;;;;;;;4892527;29;20427;-78
2021/12/31 08:05:15;;;;;;;6.20;2.70;;;;;;;;;;4886640;29;20443;-77
2021/12/31 08:07:41;;;;;;;6.80;3.03;;;;;;;;;;4894134;29;20934;-77
2021/12/31 08:10:07;;;;;;;7.90;3.00;;;;;;;;;;4872258;29;20435;-78
2021/12/31 08:12:35;;;;;;;6.65;3.10;;;;;;;;;;4887712;29;20447;-78
2021/12/31 08:15:01;;;;;;;6.68;3.20;;;;;;;;;;4888142;29;20434;-78
2021/12/31 08:17:27;;;;;;;5.88;3.33;;;;;;;;;;4904130;29;20451;-78
2021/12/31 08:19:53;;;;;;;5.97;3.17;;;;;;;;;;4902822;29;20446;-77
2021/12/31 08:22:22;;;;;;;8.40;3.40;;;;;;;;;;4903545;29;20789;-77
2021/12/31 08:24:48;;;;;;;5.88;3.10;;;;;;;;;;4906796;29;20436;-77
2021/12/31 08:27:14;;;;;;;6.43;3.17;;;;;;;;;;4883518;29;20433;-77
2021/12/31 08:29:40;;;;;;;7.43;3.78;;;;;;;;;;4871290;29;20439;-78
2021/12/31 08:32:07;;;;;;;5.50;3.30;;;;;;;;;;4886583;29;20439;-78
2021/12/31 08:34:33;;;;;;;9.02;3.85;;;;;;;;;;4883213;29;20432;-78
2021/12/31 08:36:59;;;;;;;7.80;3.47;;;;;;;;;;4881823;29;20445;-78
2021/12/31 08:39:25;;;;;;;6.68;3.35;;;;;;;;;;4912846;29;20419;-79
2021/12/31 08:41:51;;;;;;;7.43;3.60;;;;;;;;;;4898720;29;20432;-78
2021/12/31 08:44:18;;;;;;;7.40;3.47;;;;;;;;;;4899810;29;20508;-78
2021/12/31 08:46:44;;;;;;;7.60;3.78;;;;;;;;;;4889836;29;20757;-78
2021/12/31 08:49:10;;;;;;;7.63;3.47;;;;;;;;;;4909317;29;20466;-78
2021/12/31 08:51:37;;;;;;;5.85;3.15;;;;;;;;;;4894593;29;20443;-78
2021/12/31 08:54:03;;;;;;;7.53;3.60;;;;;;;;;;4889551;29;20519;-78
2021/12/31 08:56:29;;;;;;;8.15;3.50;;;;;;;;;;4918642;29;20423;-78
2021/12/31 08:58:55;;;;;;;9.75;3.72;;;;;;;;;;4904200;29;20503;-77
2021/12/31 09:01:21;;;;;;;7.47;4.03;;;;;;;;;;4906856;29;20437;-76
2021/12/31 09:03:47;;;;;;;6.35;3.47;;;;;;;;;;4885303;29;20524;-76
2021/12/31 09:06:18;;;;;;;7.40;3.47;;;;;;;;;;4916201;29;20421;-77
2021/12/31 09:08:44;;;;;;;7.28;3.67;;;;;;;;;;4914724;29;20420;-79
2021/12/31 09:11:10;;;;;;;5.85;3.25;;;;;;;;;;4886234;29;20457;-77
2021/12/31 09:13:37;;;;;;;7.72;3.50;;;;;;;;;;4904468;29;20430;-77
2021/12/31 09:16:03;;;;;;;5.50;3.20;;;;;;;;;;4906264;29;20787;-77
2021/12/31 09:18:29;;;;;;;7.37;3.83;;;;;;;;;;4906640;29;20442;-77
2021/12/31 09:20:55;;;;;;;7.70;3.50;;;;;;;;;;4909492;29;20472;-77
2021/12/31 09:23:21;;;;;;;6.97;3.75;;;;;;;;;;4880247;29;20428;-77
2021/12/31 09:25:49;;;;;;;6.80;3.40;;;;;;;;;;4885300;29;20430;-76
2021/12/31 09:28:16;;;;;;;7.90;3.50;;;;;;;;;;4892519;29;20435;-76
2021/12/31 09:30:42;;;;;;;7.03;3.47;;;;;;;;;;4904792;29;20608;-76
2021/12/31 09:33:08;;;;;;;7.43;3.33;;;;;;;;;;4904319;29;20430;-77
2021/12/31 09:35:34;;;;;;;6.68;3.50;;;;;;;;;;4889592;29;20508;-77
2021/12/31 09:38:02;;;;;;;7.07;3.47;;;;;;;;;;4899352;29;20465;-76
2021/12/31 09:40:28;;;;;;;6.45;3.40;;;;;;;;;;4883123;29;20439;-75
2021/12/31 09:43:08;;;;;;;6.82;3.42;;;;;;;;;;4911622;29;20921;-75
2021/12/31 09:45:35;;;;;;;7.27;3.40;;;;;;;;;;4877066;29;20905;-75
2021/12/31 09:48:01;;;;;;;6.63;3.33;;;;;;;;;;4884491;29;20492;-75
2021/12/31 09:50:27;;;;;;;6.57;3.30;;;;;;;;;;4887520;29;20437;-75
2021/12/31 09:52:54;;;;;;;7.22;3.67;;;;;;;;;;4898020;29;20431;-76
2021/12/31 09:55:39;;;;;;;6.18;3.40;;;;;;;;;;4902111;29;20429;-76
2021/12/31 09:58:06;;;;;;;9.05;3.80;;;;;;;;;;4904326;29;20786;-76
2021/12/31 10:00:32;;;;;;;7.63;4.10;;;;;;;;;;4903836;29;20457;-75
2021/12/31 10:03:18;;;;;;;10.68;4.00;;;;;;;;;;4903367;29;20434;-76
2021/12/31 10:05:46;;;;;;;9.10;4.25;;;;;;;;;;4889619;29;20546;-75
2021/12/31 10:08:16;;;;;;;11.97;4.60;;;;;;;;;;4913691;29;20918;-76
2021/12/31 10:10:42;;;;;;;8.75;4.40;;;;;;;;;;4904624;29;20436;-75
2021/12/31 10:13:08;;;;;;;9.75;4.47;;;;;;;;;;4895197;29;20439;-75
2021/12/31 10:15:39;;;;;;;8.48;4.18;;;;;;;;;;4900948;29;20430;-75
2021/12/31 10:18:10;;;;;;;9.68;4.85;;;;;;;;;;4903922;29;20473;-75
2021/12/31 10:20:52;;;;;;;8.50;4.65;;;;;;;;;;4914846;29;20918;-75
2021/12/31 10:23:21;;;;;;;9.07;4.80;;;;;;;;;;4887519;29;20477;-76
2021/12/31 10:25:48;;;;;;;6.37;4.30;;;;;;;;;;4891072;29;20463;-75
2021/12/31 10:28:15;;;;;;;10.13;4.90;;;;;;;;;;4875983;29;20516;-75
2021/12/31 10:30:42;;;;;;;9.15;5.05;;;;;;;;;;4891832;29;20453;-75
2021/12/31 10:33:09;;;;;;;9.77;4.82;;;;;;;;;;4905160;29;20425;-75
2021/12/31 10:35:45;;;;;;;9.38;4.90;;;;;;;;;;4880669;29;20448;-75
2021/12/31 10:38:12;;;;;;;9.65;4.82;;;;;;;;;;4890389;29;22294;-75
2021/12/31 10:40:46;;;;;;;8.23;5.10;;;;;;;;;;4909808;29;20490;-75
2021/12/31 10:43:16;;;;;;;8.82;5.10;;;;;;;;;;4886998;29;20447;-75
2021/12/31 10:45:58;;;;;;;10.02;5.20;;;;;;;;;;4898824;29;20481;-75
2021/12/31 10:48:37;;;;;;;8.23;4.70;;;;;;;;;;4899080;29;20442;-76
2021/12/31 10:51:03;;;;;;;6.80;4.60;;;;;;;;;;4916746;29;20516;-75
2021/12/31 10:53:33;;;;;;;9.77;4.95;;;;;;;;;;4914784;29;20435;-74
2021/12/31 10:56:07;;;;;;;9.23;5.17;;;;;;;;;;4882828;29;20524;-75
2021/12/31 10:58:33;;;;;;;10.82;4.63;;;;;;;;;;4903685;29;21006;-74
2021/12/31 11:00:59;;;;;;;8.77;4.60;;;;;;;;;;4896153;29;20435;-74
2021/12/31 11:03:26;;;;;;;8.43;4.82;;;;;;;;;;4892483;29;20468;-74
2021/12/31 11:05:54;;;;;;;9.05;4.70;;;;;;;;;;4889692;29;20441;-75
2021/12/31 11:08:20;;;;;;;9.18;5.03;;;;;;;;;;4904967;29;20431;-74
2021/12/31 11:10:46;;;;;;;7.40;4.60;;;;;;;;;;4885843;29;20761;-74
2021/12/31 11:13:19;;;;;;;7.97;4.72;;;;;;;;;;4903669;29;20441;-74
2021/12/31 11:15:47;;;;;;;8.55;5.03;;;;;;;;;;4905966;29;20437;-75
2021/12/31 11:18:18;;;;;;;10.07;4.80;;;;;;;;;;4917524;29;20505;-77
2021/12/31 11:20:45;;;;;;;8.88;5.07;;;;;;;;;;4885407;29;20456;-78
2021/12/31 11:23:12;;;;;;;9.65;5.85;;;;;;;;;;4898166;29;20437;-76
2021/12/31 11:25:49;;;;;;;10.23;5.63;;;;;;;;;;4883989;29;20448;-78
2021/12/31 11:28:24;;;;;;;11.75;5.97;;;;;;;;;;4906339;29;20467;-78
2021/12/31 11:30:50;;;;;;;13.63;6.50;;;;;;;;;;4880838;29;20512;-77
2021/12/31 11:33:18;;;;;;;13.10;6.50;;;;;;;;;;4879618;29;20435;-78
2021/12/31 11:35:59;;;;;;;12.18;6.05;;;;;;;;;;4884091;29;20478;-78
2021/12/31 11:38:25;;;;;;;14.13;6.38;;;;;;;;;;4878229;29;20578;-78
2021/12/31 11:40:54;;;;;;;15.63;7.72;;;;;;;;;;4898712;29;20518;-79
2021/12/31 11:43:25;;;;;;;20.40;8.27;;;;;;;;;;4892118;29;20449;-78
2021/12/31 11:46:09;;;;;;;20.30;7.97;;;;;;;;;;4909377;29;20532;-77
2021/12/31 11:51:12;;;;;;;14.93;8.13;;;;;;;;;;4905006;29;20423;-82
2021/12/31 11:53:56;;;;;;;19.38;8.07;;;;;;;;;;4889402;29;20436;-80
2021/12/31 11:56:31;;;;;;;16.60;8.55;;;;;;;;;;4894732;29;20779;-81
2021/12/31 11:58:57;;;;;;;22.70;9.95;;;;;;;;;;4878742;29;20971;-76
2021/12/31 12:01:43;;;;;;;18.92;9.15;;;11.50;99.90;;;;;;4882029;29;20441;-77
2021/12/31 12:04:19;;;;;;;16.50;9.70;;;;;;;;;;4885417;29;20431;-76
2021/12/31 12:06:54;;;;;;;19.75;9.82;;;;;;;;;;4885522;29;20528;-77
2021/12/31 12:09:20;;;;;;;19.85;10.70;;;;;;;;;;4880839;29;20457;-76
2021/12/31 12:12:00;;;;;;;21.15;9.85;;;;;;;;;;4881012;29;20441;-76
2021/12/31 12:14:37;;;;;;;23.40;10.45;;;;;;;;;;4890572;29;20437;-77
2021/12/31 12:17:04;;;;;;;16.53;9.67;;;;;;;;;;4885578;29;20446;-76
2021/12/31 12:19:49;;;;;;;20.17;10.40;;;;;;;;;;4884439;29;20435;-77
2021/12/31 12:22:25;;;;;;;15.47;9.90;;;;;;;;;;4888955;29;20437;-77
2021/12/31 12:24:52;;;;;;;18.55;9.85;;;;;;;;;;4889728;29;20792;-76
2021/12/31 12:27:19;;;;;;;18.58;10.55;;;;;;;;;;4874651;29;20433;-76
2021/12/31 12:29:51;;;;;;;15.63;10.00;;;;;;;;;;4890000;29;21018;-77
2021/12/31 12:32:37;;;;;;;15.15;9.75;;;;;;;;;;4875774;29;20437;-77
2021/12/31 12:35:24;;;;;;;13.32;8.85;;;;;;;;;;4885047;29;21753;-77
2021/12/31 12:38:13;;;;;;;14.90;9.43;;;;;;;;;;4885431;29;20447;-77
2021/12/31 12:40:43;;;;;;;14.23;9.30;;;;;;;;;;4883820;29;20508;-74
2021/12/31 12:43:19;;;;;;;14.38;8.70;;;;;;;;;;4899311;29;20564;-76
2021/12/31 12:45:50;;;;;;;10.15;7.57;;;;;;;;;;4903030;29;20442;-77
2021/12/31 12:48:16;;;;;;;11.73;8.20;;;;;;;;;;4882879;29;20439;-77
2021/12/31 12:50:51;;;;;;;13.90;8.20;;;;;;;;;;4890930;29;20431;-77
2021/12/31 12:53:21;;;;;;;10.20;6.97;;;;;;;;;;4886276;29;20596;-77
2021/12/31 12:55:47;;;;;;;10.63;6.60;;;;;;;;;;4870361;29;20950;-78
2021/12/31 12:58:21;;;;;;;10.10;6.15;;;;;;;;;;4885089;29;20427;-77
2021/12/31 13:00:47;;;;;;;10.57;6.80;;;;;;;;;;4886128;29;20448;-77
2021/12/31 13:03:13;;;;;;;10.35;6.65;;;;;;;;;;4887506;29;21213;-77
2021/12/31 13:05:39;;;;;;;10.82;6.53;;;;;;;;;;4879212;29;20440;-78
2021/12/31 13:08:06;;;;;;;11.07;6.43;;;11.10;99.90;;;;;;4894431;29;20429;-81
2021/12/31 13:10:33;;;;;;;11.77;6.93;;;;;;;;;;4876521;29;20421;-82
2021/12/31 13:13:00;;;;;;;10.85;6.85;;;;;;;;;;4883149;29;20559;-82
2021/12/31 13:15:27;;;;;;;13.27;7.20;;;;;;;;;;4897517;29;20430;-82
2021/12/31 13:17:57;;;;;;;15.50;7.75;;;;;;;;;;4894328;29;20497;-76
2021/12/31 13:20:25;;;;;;;14.00;8.85;;;;;;;;;;4905413;29;20450;-76
2021/12/31 13:22:54;;;;;;;13.68;9.13;;;;;;;;;;4889158;29;20735;-76
2021/12/31 13:25:20;;;;;;;17.15;8.63;;;;;;;;;;4901559;29;20429;-76
2021/12/31 13:27:46;;;;;;;17.35;8.07;;;;;;;;;;4895336;29;20434;-75
2021/12/31 13:30:13;;;;;;;15.63;8.55;;;;;;;;;;4895191;29;20429;-76
2021/12/31 13:32:47;;;;;;;18.63;8.68;;;;;;;;;;4903994;29;20898;-76
2021/12/31 13:35:13;;;;;;;13.05;7.45;;;;;;;;;;4890728;29;20440;-77
2021/12/31 13:37:42;;;;;;;16.27;8.75;;;;;;;;;;4909153;29;20926;-77
2021/12/31 13:40:12;;;;;;;16.33;8.32;;;;;;;;;;4884945;29;20443;-76
2021/12/31 13:42:39;;;;;;;17.27;8.75;;;;;;;;;;4892481;29;20436;-76
2021/12/31 13:45:06;;;;;;;21.63;9.02;;;;;;;;;;4883525;29;20447;-76
2021/12/31 13:47:32;;;;;;;20.42;8.88;;;;;;;;;;4878078;29;20965;-76
2021/12/31 13:50:03;;;;;;;18.27;8.23;;;;;;;;;;4871242;29;20445;-76
2021/12/31 13:52:30;;;;;;;21.20;8.88;;;;;;;;;;4883663;29;20434;-76
2021/12/31 13:54:57;;;;;;;22.92;9.00;;;;;;;;;;4908562;29;20509;-76
2021/12/31 13:57:26;;;;;;;24.20;9.50;;;;;;;;;;4914158;29;20543;-76
2021/12/31 13:59:53;;;;;;;22.52;8.77;;;;;;;;;;4905011;29;20494;-77
2021/12/31 14:02:19;;;;;;;26.88;9.15;;;;;;;;;;4887225;29;20523;-77
2021/12/31 14:04:55;;;;;;;28.63;9.43;;;;;;;;;;4894583;29;20583;-77
2021/12/31 14:07:36;;;;;;;27.57;9.13;;;;;;;;;;4881076;29;20782;-76
2021/12/31 14:10:05;;;;;;;26.07;8.70;;;;;;;;;;4906231;29;20452;-76
2021/12/31 14:12:31;;;;;;;26.55;8.07;;;;;;;;;;4908147;29;20431;-77
2021/12/31 14:14:58;;;;;;;26.20;8.80;;;;;;;;;;4884673;29;20498;-76
2021/12/31 14:17:24;;;;;;;27.37;8.60;;;;;;;;;;4901751;29;20507;-76
2021/12/31 14:19:50;;;;;;;27.73;8.88;;;;;;;;;;4895910;29;20468;-76
2021/12/31 14:22:16;;;;;;;25.58;8.88;;;;;;;;;;4892612;29;20922;-76
2021/12/31 14:24:42;;;;;;;25.05;8.98;;;;;;;;;;4905160;29;20448;-76
2021/12/31 14:27:08;;;;;;;23.65;8.77;;;;;;;;;;4917233;29;20425;-76
2021/12/31 14:29:35;;;;;;;31.38;8.90;;;;;;;;;;4904809;29;20431;-76
2021/12/31 14:32:02;;;;;;;27.85;9.02;;;;;;;;;;4900385;29;20429;-76
2021/12/31 14:34:29;;;;;;;25.02;8.88;;;;;;;;;;4862427;29;20433;-76
2021/12/31 14:37:03;;;;;;;23.38;8.73;;;;;;;;;;4907678;29;20431;-76
2021/12/31 14:39:30;;;;;;;29.15;8.85;;;;;;;;;;4872020;29;20425;-76
2021/12/31 14:41:56;;;;;;;26.45;9.00;;;;;;;;;;4909871;29;20437;-76
2021/12/31 14:44:22;;;;;;;28.85;9.32;;;;;;;;;;4895377;29;20917;-76